createdAt,value
2023-04-01T00:00:03.797Z,78
2023-04-01T00:01:00.701Z,78
2023-04-01T00:02:00.773Z,78
2023-04-01T00:03:00.831Z,78
2023-04-01T00:04:00.821Z,78
2023-04-01T00:05:07.474Z,78
2023-04-01T00:06:00.863Z,78
2023-04-01T00:07:00.738Z,78
2023-04-01T00:08:00.801Z,78
2023-04-01T00:09:00.746Z,78
2023-04-01T00:10:03.670Z,78
2023-04-01T00:11:00.737Z,78
2023-04-01T00:12:00.853Z,78
2023-04-01T00:13:00.794Z,78
2023-04-01T00:14:00.836Z,78
2023-04-01T00:15:03.661Z,78
2023-04-01T00:16:03.121Z,78
2023-04-01T00:17:00.866Z,78
2023-04-01T00:18:00.953Z,78
2023-04-01T00:19:00.818Z,78
2023-04-01T00:20:10.791Z,78
2023-04-01T00:21:00.821Z,78
2023-04-01T00:22:00.891Z,78
2023-04-01T00:23:00.817Z,78
2023-04-01T00:24:00.896Z,78
2023-04-01T00:25:03.488Z,78
2023-04-01T00:26:00.906Z,78
2023-04-01T00:27:00.833Z,78
2023-04-01T00:28:00.911Z,78
2023-04-01T00:29:00.867Z,79
2023-04-01T00:30:05.263Z,79
2023-04-01T00:31:00.858Z,79
2023-04-01T00:32:01.168Z,79
2023-04-01T00:33:00.897Z,79
2023-04-01T00:34:00.961Z,79
2023-04-01T00:35:03.600Z,79
2023-04-01T00:36:01.176Z,79
2023-04-01T00:37:00.878Z,79
2023-04-01T00:38:00.963Z,79
2023-04-01T00:39:00.889Z,79
2023-04-01T00:40:04.059Z,79
2023-04-01T00:41:00.904Z,79
2023-04-01T00:42:01.012Z,79
2023-04-01T00:43:00.907Z,79
2023-04-01T00:44:00.983Z,79
2023-04-01T00:45:05.671Z,79
2023-04-01T00:46:00.987Z,79
2023-04-01T00:47:00.983Z,78
2023-04-01T00:48:01.115Z,78
2023-04-01T00:49:00.931Z,78
2023-04-01T00:50:03.828Z,78
2023-04-01T00:51:00.962Z,78
2023-04-01T00:52:01.038Z,78
2023-04-01T00:53:00.974Z,78
2023-04-01T00:54:01.079Z,78
2023-04-01T00:55:03.742Z,78
2023-04-01T00:56:01.058Z,78
2023-04-01T00:57:01.019Z,78
2023-04-01T00:58:01.051Z,78
2023-04-01T00:59:01.022Z,78
2023-04-01T01:00:04.144Z,78
2023-04-01T01:01:01.039Z,77
2023-04-01T01:02:01.107Z,77
2023-04-01T01:03:01.074Z,77
2023-04-01T01:04:01.102Z,77
2023-04-01T01:05:03.700Z,77
2023-04-01T01:06:01.179Z,77
2023-04-01T01:07:01.069Z,77
2023-04-01T01:08:01.127Z,77
2023-04-01T01:09:01.071Z,76
2023-04-01T01:10:05.449Z,76
2023-04-01T01:11:01.080Z,76
2023-04-01T01:12:01.204Z,76
2023-04-01T01:13:01.094Z,76
2023-04-01T01:14:01.159Z,77
2023-04-01T01:15:03.844Z,77
2023-04-01T01:16:01.180Z,76
2023-04-01T01:17:01.236Z,76
2023-04-01T01:18:01.259Z,76
2023-04-01T01:19:01.098Z,76
2023-04-01T01:20:07.729Z,76
2023-04-01T01:21:01.120Z,76
2023-04-01T01:22:01.220Z,76
2023-04-01T01:23:01.119Z,76
2023-04-01T01:24:01.219Z,76
2023-04-01T01:25:03.931Z,76
2023-04-01T01:26:01.227Z,76
2023-04-01T01:27:01.153Z,76
2023-04-01T01:28:02.311Z,76
2023-04-01T01:29:01.141Z,76
2023-04-01T01:30:04.511Z,76
2023-04-01T01:31:01.171Z,76
2023-04-01T01:32:01.219Z,76
2023-04-01T01:33:01.206Z,76
2023-04-01T01:34:00.244Z,76
2023-04-01T01:35:02.904Z,76
2023-04-01T01:36:00.329Z,76
2023-04-01T01:37:00.175Z,76
2023-04-01T01:38:00.277Z,76
2023-04-01T01:39:00.185Z,76
2023-04-01T01:40:04.065Z,76
2023-04-01T01:41:00.211Z,76
2023-04-01T01:42:00.329Z,76
2023-04-01T01:43:00.207Z,76
2023-04-01T01:44:00.283Z,76
2023-04-01T01:45:02.983Z,76
2023-04-01T01:46:00.343Z,76
2023-04-01T01:47:00.229Z,76
2023-04-01T01:48:00.375Z,76
2023-04-01T01:49:00.234Z,76
2023-04-01T01:50:03.580Z,76
2023-04-01T01:51:00.261Z,76
2023-04-01T01:52:00.380Z,77
2023-04-01T01:53:00.268Z,77
2023-04-01T01:54:00.433Z,77
2023-04-01T01:55:03.000Z,77
2023-04-01T01:56:00.376Z,77
2023-04-01T01:57:00.315Z,77
2023-04-01T01:58:00.367Z,77
2023-04-01T01:59:00.288Z,77
2023-04-01T02:00:03.580Z,77
2023-04-01T02:01:00.306Z,77
2023-04-01T02:02:00.526Z,77
2023-04-01T02:03:00.373Z,77
2023-04-01T02:04:00.436Z,77
2023-04-01T02:05:03.049Z,77
2023-04-01T02:06:00.446Z,77
2023-04-01T02:07:00.333Z,76
2023-04-01T02:08:00.433Z,76
2023-04-01T02:09:00.369Z,76
2023-04-01T02:10:03.630Z,76
2023-04-01T02:11:00.342Z,76
2023-04-01T02:12:00.471Z,76
2023-04-01T02:13:00.350Z,76
2023-04-01T02:14:00.429Z,76
2023-04-01T02:15:03.217Z,76
2023-04-01T02:16:00.477Z,76
2023-04-01T02:17:00.377Z,76
2023-04-01T02:18:00.579Z,76
2023-04-01T02:19:00.401Z,76
2023-04-01T02:20:03.482Z,76
2023-04-01T02:21:00.428Z,76
2023-04-01T02:22:00.489Z,76
2023-04-01T02:23:00.408Z,76
2023-04-01T02:24:00.509Z,76
2023-04-01T02:25:03.031Z,76
2023-04-01T02:26:00.511Z,76
2023-04-01T02:27:00.422Z,76
2023-04-01T02:28:00.513Z,76
2023-04-01T02:29:00.421Z,76
2023-04-01T02:30:03.593Z,76
2023-04-01T02:31:00.483Z,76
2023-04-01T02:32:00.532Z,77
2023-04-01T02:33:00.503Z,77
2023-04-01T02:34:00.551Z,77
2023-04-01T02:35:04.219Z,77
2023-04-01T02:36:00.582Z,77
2023-04-01T02:37:00.468Z,77
2023-04-01T02:38:00.558Z,77
2023-04-01T02:39:00.501Z,77
2023-04-01T02:40:03.467Z,77
2023-04-01T02:41:00.508Z,77
2023-04-01T02:42:00.623Z,78
2023-04-01T02:43:00.488Z,78
2023-04-01T02:44:00.616Z,78
2023-04-01T02:45:03.910Z,78
2023-04-01T02:46:00.589Z,78
2023-04-01T02:47:00.591Z,79
2023-04-01T02:48:00.652Z,79
2023-04-01T02:49:00.554Z,79
2023-04-01T02:50:03.615Z,79
2023-04-01T02:51:00.565Z,79
2023-04-01T02:52:00.627Z,79
2023-04-01T02:53:00.578Z,79
2023-04-01T02:54:00.649Z,79
2023-04-01T02:55:03.701Z,79
2023-04-01T02:56:00.672Z,79
2023-04-01T02:57:00.656Z,79
2023-04-01T02:58:00.859Z,79
2023-04-01T02:59:00.604Z,79
2023-04-01T03:00:03.517Z,79
2023-04-01T03:01:00.650Z,79
2023-04-01T03:02:00.813Z,79
2023-04-01T03:03:00.905Z,80
2023-04-01T03:04:00.684Z,80
2023-04-01T03:05:03.593Z,80
2023-04-01T03:06:00.710Z,80
2023-04-01T03:07:00.634Z,80
2023-04-01T03:08:00.688Z,80
2023-04-01T03:09:00.645Z,80
2023-04-01T03:10:03.754Z,81
2023-04-01T03:11:00.772Z,81
2023-04-01T03:12:00.720Z,81
2023-04-01T03:13:00.653Z,81
2023-04-01T03:14:00.749Z,81
2023-04-01T03:15:10.683Z,81
2023-04-01T03:16:00.754Z,81
2023-04-01T03:17:00.790Z,81
2023-04-01T03:18:00.838Z,81
2023-04-01T03:19:00.741Z,81
2023-04-01T03:20:04.755Z,81
2023-04-01T03:21:00.708Z,81
2023-04-01T03:22:00.774Z,81
2023-04-01T03:23:00.730Z,81
2023-04-01T03:24:00.787Z,81
2023-04-01T03:25:03.330Z,81
2023-04-01T03:26:00.800Z,82
2023-04-01T03:27:00.735Z,82
2023-04-01T03:28:00.807Z,82
2023-04-01T03:29:00.788Z,82
2023-04-01T03:30:05.042Z,82
2023-04-01T03:31:00.810Z,82
2023-04-01T03:32:00.846Z,82
2023-04-01T03:33:00.873Z,82
2023-04-01T03:34:00.842Z,82
2023-04-01T03:35:03.431Z,82
2023-04-01T03:36:00.896Z,83
2023-04-01T03:37:00.761Z,83
2023-04-01T03:38:00.834Z,83
2023-04-01T03:39:00.781Z,83
2023-04-01T03:40:03.836Z,83
2023-04-01T03:41:00.789Z,84
2023-04-01T03:42:00.882Z,84
2023-04-01T03:43:00.867Z,84
2023-04-01T03:44:00.863Z,84
2023-04-01T03:45:05.003Z,84
2023-04-01T03:46:00.966Z,84
2023-04-01T03:47:00.813Z,84
2023-04-01T03:48:00.956Z,84
2023-04-01T03:49:00.804Z,84
2023-04-01T03:50:03.874Z,84
2023-04-01T03:51:00.848Z,84
2023-04-01T03:52:00.899Z,84
2023-04-01T03:53:00.841Z,84
2023-04-01T03:54:00.913Z,84
2023-04-01T03:55:03.552Z,84
2023-04-01T03:56:00.929Z,85
2023-04-01T03:57:00.882Z,85
2023-04-01T03:58:00.920Z,85
2023-04-01T03:59:00.953Z,84
2023-04-01T04:00:04.408Z,84
2023-04-01T04:01:00.898Z,84
2023-04-01T04:02:00.970Z,84
2023-04-01T04:03:01.013Z,85
2023-04-01T04:04:00.968Z,85
2023-04-01T04:05:03.658Z,85
2023-04-01T04:06:00.988Z,85
2023-04-01T04:07:00.898Z,85
2023-04-01T04:08:02.032Z,85
2023-04-01T04:09:00.923Z,85
2023-04-01T04:10:04.347Z,85
2023-04-01T04:11:00.917Z,85
2023-04-01T04:12:01.012Z,85
2023-04-01T04:13:00.933Z,85
2023-04-01T04:14:01.004Z,85
2023-04-01T04:15:03.641Z,85
2023-04-01T04:16:01.071Z,85
2023-04-01T04:17:00.938Z,85
2023-04-01T04:18:01.672Z,85
2023-04-01T04:19:01.009Z,85
2023-04-01T04:20:04.119Z,85
2023-04-01T04:21:00.975Z,85
2023-04-01T04:22:01.047Z,85
2023-04-01T04:23:00.982Z,85
2023-04-01T04:24:01.087Z,85
2023-04-01T04:25:04.376Z,85
2023-04-01T04:26:01.080Z,85
2023-04-01T04:27:00.997Z,85
2023-04-01T04:28:01.112Z,85
2023-04-01T04:29:00.989Z,85
2023-04-01T04:30:04.221Z,85
2023-04-01T04:31:01.016Z,85
2023-04-01T04:32:01.149Z,85
2023-04-01T04:33:01.056Z,85
2023-04-01T04:34:01.130Z,85
2023-04-01T04:35:03.956Z,85
2023-04-01T04:36:01.693Z,85
2023-04-01T04:37:01.040Z,85
2023-04-01T04:38:01.101Z,85
2023-04-01T04:39:01.055Z,84
2023-04-01T04:40:04.519Z,84
2023-04-01T04:41:01.073Z,84
2023-04-01T04:42:01.142Z,84
2023-04-01T04:43:01.063Z,84
2023-04-01T04:44:01.130Z,84
2023-04-01T04:45:03.780Z,84
2023-04-01T04:46:01.170Z,84
2023-04-01T04:47:01.134Z,84
2023-04-01T04:48:01.231Z,84
2023-04-01T04:49:01.103Z,84
2023-04-01T04:50:04.708Z,84
2023-04-01T04:51:01.138Z,84
2023-04-01T04:52:01.221Z,84
2023-04-01T04:53:01.111Z,84
2023-04-01T04:54:01.205Z,84
2023-04-01T04:55:03.853Z,84
2023-04-01T04:56:01.209Z,84
2023-04-01T04:57:01.172Z,83
2023-04-01T04:58:01.222Z,83
2023-04-01T04:59:01.145Z,83
2023-04-01T05:00:04.859Z,83
2023-04-01T05:01:00.187Z,83
2023-04-01T05:02:00.313Z,83
2023-04-01T05:03:00.404Z,83
2023-04-01T05:04:01.589Z,83
2023-04-01T05:05:02.939Z,83
2023-04-01T05:06:00.284Z,83
2023-04-01T05:07:00.183Z,83
2023-04-01T05:08:00.293Z,83
2023-04-01T05:09:00.210Z,83
2023-04-01T05:10:03.385Z,83
2023-04-01T05:11:00.220Z,83
2023-04-01T05:12:00.316Z,83
2023-04-01T05:13:00.214Z,83
2023-04-01T05:14:00.316Z,83
2023-04-01T05:15:03.166Z,83
2023-04-01T05:16:00.349Z,83
2023-04-01T05:17:00.268Z,83
2023-04-01T05:18:01.643Z,83
2023-04-01T05:19:00.249Z,83
2023-04-01T05:20:04.094Z,83
2023-04-01T05:21:00.268Z,84
2023-04-01T05:22:00.376Z,84
2023-04-01T05:23:00.276Z,84
2023-04-01T05:24:00.385Z,84
2023-04-01T05:25:02.967Z,84
2023-04-01T05:26:00.352Z,84
2023-04-01T05:27:00.300Z,84
2023-04-01T05:28:00.381Z,84
2023-04-01T05:29:00.298Z,84
2023-04-01T05:30:03.473Z,84
2023-04-01T05:31:00.373Z,84
2023-04-01T05:32:00.425Z,84
2023-04-01T05:33:00.432Z,84
2023-04-01T05:34:00.405Z,85
2023-04-01T05:35:03.037Z,85
2023-04-01T05:36:01.687Z,85
2023-04-01T05:37:00.363Z,85
2023-04-01T05:38:00.469Z,85
2023-04-01T05:39:00.358Z,85
2023-04-01T05:40:03.551Z,85
2023-04-01T05:41:00.356Z,85
2023-04-01T05:42:00.469Z,85
2023-04-01T05:43:00.382Z,85
2023-04-01T05:44:00.445Z,85
2023-04-01T05:45:03.151Z,85
2023-04-01T05:46:00.516Z,85
2023-04-01T05:47:00.382Z,85
2023-04-01T05:48:00.516Z,85
2023-04-01T05:49:00.382Z,85
2023-04-01T05:50:04.864Z,85
2023-04-01T05:51:00.463Z,85
2023-04-01T05:52:00.520Z,85
2023-04-01T05:53:00.418Z,85
2023-04-01T05:54:00.545Z,85
2023-04-01T05:55:03.094Z,85
2023-04-01T05:56:00.522Z,85
2023-04-01T05:57:00.513Z,85
2023-04-01T05:58:00.561Z,85
2023-04-01T05:59:00.456Z,85
2023-04-01T06:00:05.086Z,85
2023-04-01T06:01:09.478Z,85
2023-04-01T06:02:00.551Z,85
2023-04-01T06:03:00.588Z,86
2023-04-01T06:04:01.800Z,86
2023-04-01T06:05:03.221Z,86
2023-04-01T06:06:00.588Z,86
2023-04-01T06:07:00.499Z,86
2023-04-01T06:08:00.595Z,86
2023-04-01T06:09:00.514Z,86
2023-04-01T06:10:05.103Z,86
2023-04-01T06:11:00.592Z,86
2023-04-01T06:12:00.607Z,86
2023-04-01T06:13:00.540Z,86
2023-04-01T06:14:00.600Z,86
2023-04-01T06:15:04.027Z,86
2023-04-01T06:16:00.687Z,86
2023-04-01T06:17:00.552Z,86
2023-04-01T06:18:01.580Z,86
2023-04-01T06:19:00.570Z,86
2023-04-01T06:20:03.539Z,86
2023-04-01T06:21:00.574Z,86
2023-04-01T06:22:01.681Z,86
2023-04-01T06:23:00.574Z,86
2023-04-01T06:24:00.679Z,86
2023-04-01T06:25:03.701Z,86
2023-04-01T06:26:00.732Z,86
2023-04-01T06:27:00.600Z,86
2023-04-01T06:28:00.689Z,86
2023-04-01T06:29:00.599Z,86
2023-04-01T06:30:03.619Z,86
2023-04-01T06:31:00.625Z,86
2023-04-01T06:32:00.730Z,86
2023-04-01T06:33:00.655Z,86
2023-04-01T06:34:00.713Z,86
2023-04-01T06:35:03.728Z,86
2023-04-01T06:36:01.638Z,86
2023-04-01T06:37:00.694Z,86
2023-04-01T06:38:00.725Z,86
2023-04-01T06:39:00.688Z,86
2023-04-01T06:40:03.833Z,86
2023-04-01T06:41:00.668Z,86
2023-04-01T06:42:00.792Z,86
2023-04-01T06:43:00.673Z,86
2023-04-01T06:44:00.761Z,86
2023-04-01T06:45:03.640Z,86
2023-04-01T06:46:00.825Z,86
2023-04-01T06:47:00.702Z,86
2023-04-01T06:48:00.909Z,86
2023-04-01T06:49:00.700Z,86
2023-04-01T06:50:05.120Z,86
2023-04-01T06:51:00.732Z,86
2023-04-01T06:52:00.812Z,86
2023-04-01T06:53:00.720Z,86
2023-04-01T06:54:00.832Z,86
2023-04-01T06:55:03.431Z,86
2023-04-01T06:56:00.806Z,86
2023-04-01T06:57:00.765Z,86
2023-04-01T06:58:00.856Z,86
2023-04-01T06:59:00.749Z,86
2023-04-01T07:00:03.947Z,86
2023-04-01T07:01:00.777Z,86
2023-04-01T07:02:00.861Z,86
2023-04-01T07:03:00.804Z,86
2023-04-01T07:04:01.604Z,86
2023-04-01T07:05:04.908Z,86
2023-04-01T07:06:00.919Z,86
2023-04-01T07:07:00.829Z,86
2023-04-01T07:08:00.880Z,86
2023-04-01T07:09:01.785Z,86
2023-04-01T07:10:04.682Z,86
2023-04-01T07:11:00.816Z,86
2023-04-01T07:12:00.898Z,86
2023-04-01T07:13:00.836Z,86
2023-04-01T07:14:00.968Z,86
2023-04-01T07:15:04.069Z,86
2023-04-01T07:16:00.940Z,86
2023-04-01T07:17:00.898Z,86
2023-04-01T07:18:01.591Z,86
2023-04-01T07:19:00.856Z,86
2023-04-01T07:20:06.081Z,86
2023-04-01T07:21:00.896Z,86
2023-04-01T07:22:00.976Z,86
2023-04-01T07:23:00.882Z,85
2023-04-01T07:24:00.964Z,85
2023-04-01T07:25:03.674Z,85
2023-04-01T07:26:00.953Z,85
2023-04-01T07:27:00.904Z,85
2023-04-01T07:28:00.996Z,85
2023-04-01T07:29:00.895Z,85
2023-04-01T07:30:04.091Z,85
2023-04-01T07:31:00.913Z,85
2023-04-01T07:32:00.972Z,85
2023-04-01T07:33:00.978Z,85
2023-04-01T07:34:01.304Z,85
2023-04-01T07:35:03.747Z,85
2023-04-01T07:36:01.564Z,85
2023-04-01T07:37:00.936Z,85
2023-04-01T07:38:01.015Z,85
2023-04-01T07:39:00.985Z,85
2023-04-01T07:40:04.194Z,85
2023-04-01T07:41:00.973Z,85
2023-04-01T07:42:01.022Z,85
2023-04-01T07:43:00.958Z,85
2023-04-01T07:44:01.071Z,85
2023-04-01T07:45:05.984Z,85
2023-04-01T07:46:01.118Z,85
2023-04-01T07:47:00.993Z,85
2023-04-01T07:48:01.138Z,85
2023-04-01T07:49:01.003Z,85
2023-04-01T07:50:05.455Z,85
2023-04-01T07:51:01.038Z,85
2023-04-01T07:52:01.100Z,85
2023-04-01T07:53:00.997Z,85
2023-04-01T07:54:01.090Z,85
2023-04-01T07:55:03.920Z,85
2023-04-01T07:56:01.111Z,85
2023-04-01T07:57:01.113Z,85
2023-04-01T07:58:01.110Z,85
2023-04-01T07:59:01.059Z,85
2023-04-01T08:00:04.491Z,85
2023-04-01T08:01:01.064Z,85
2023-04-01T08:02:01.148Z,85
2023-04-01T08:03:01.194Z,85
2023-04-01T08:04:01.755Z,85
2023-04-01T08:05:04.847Z,85
2023-04-01T08:06:01.185Z,85
2023-04-01T08:07:01.073Z,85
2023-04-01T08:08:01.176Z,85
2023-04-01T08:09:01.084Z,86
2023-04-01T08:10:04.145Z,86
2023-04-01T08:11:01.097Z,86
2023-04-01T08:12:01.187Z,86
2023-04-01T08:13:01.092Z,86
2023-04-01T08:14:01.350Z,86
2023-04-01T08:15:04.056Z,86
2023-04-01T08:16:01.307Z,86
2023-04-01T08:17:01.114Z,86
2023-04-01T08:18:01.660Z,86
2023-04-01T08:19:01.128Z,86
2023-04-01T08:20:04.296Z,86
2023-04-01T08:21:01.127Z,86
2023-04-01T08:22:01.204Z,86
2023-04-01T08:23:01.140Z,86
2023-04-01T08:24:01.208Z,86
2023-04-01T08:25:03.859Z,86
2023-04-01T08:26:01.261Z,86
2023-04-01T08:27:01.155Z,86
2023-04-01T08:28:01.224Z,86
2023-04-01T08:29:01.177Z,87
2023-04-01T08:30:04.362Z,87
2023-04-01T08:31:01.174Z,87
2023-04-01T08:32:01.486Z,87
2023-04-01T08:33:01.213Z,87
2023-04-01T08:34:01.260Z,87
2023-04-01T08:35:02.867Z,87
2023-04-01T08:36:01.601Z,87
2023-04-01T08:37:00.185Z,87
2023-04-01T08:38:00.478Z,87
2023-04-01T08:39:00.207Z,87
2023-04-01T08:40:03.388Z,87
2023-04-01T08:41:00.202Z,87
2023-04-01T08:42:00.684Z,87
2023-04-01T08:43:00.235Z,87
2023-04-01T08:44:00.574Z,87
2023-04-01T08:45:02.960Z,87
2023-04-01T08:46:00.564Z,87
2023-04-01T08:47:00.249Z,87
2023-04-01T08:48:00.441Z,87
2023-04-01T08:49:00.267Z,87
2023-04-01T08:50:03.516Z,87
2023-04-01T08:51:00.256Z,87
2023-04-01T08:52:00.593Z,87
2023-04-01T08:53:00.250Z,87
2023-04-01T08:54:00.407Z,88
2023-04-01T08:55:02.912Z,88
2023-04-01T08:56:00.683Z,88
2023-04-01T08:57:00.296Z,88
2023-04-01T08:58:00.872Z,88
2023-04-01T08:59:00.288Z,88
2023-04-01T09:00:04.791Z,88
2023-04-01T09:01:00.372Z,88
2023-04-01T09:02:01.184Z,88
2023-04-01T09:03:00.502Z,88
2023-04-01T09:04:16.447Z,88
2023-04-01T09:05:03.203Z,88
2023-04-01T09:06:01.392Z,88
2023-04-01T09:07:00.369Z,88
2023-04-01T09:08:01.829Z,88
2023-04-01T09:09:00.387Z,88
2023-04-01T09:10:04.560Z,88
2023-04-01T09:11:00.407Z,88
2023-04-01T09:12:01.035Z,88
2023-04-01T09:13:00.387Z,88
2023-04-01T09:14:02.367Z,88
2023-04-01T09:15:03.272Z,88
2023-04-01T09:16:00.505Z,88
2023-04-01T09:17:00.417Z,88
2023-04-01T09:18:01.637Z,88
2023-04-01T09:19:00.440Z,88
2023-04-01T09:20:03.596Z,88
2023-04-01T09:21:00.471Z,88
2023-04-01T09:22:00.528Z,88
2023-04-01T09:23:00.453Z,88
2023-04-01T09:24:00.565Z,88
2023-04-01T09:25:03.113Z,88
2023-04-01T09:26:00.579Z,88
2023-04-01T09:27:01.108Z,88
2023-04-01T09:28:00.627Z,88
2023-04-01T09:29:00.491Z,88
2023-04-01T09:30:03.722Z,88
2023-04-01T09:31:00.549Z,88
2023-04-01T09:32:00.621Z,88
2023-04-01T09:33:00.596Z,88
2023-04-01T09:34:00.618Z,88
2023-04-01T09:35:03.330Z,88
2023-04-01T09:36:01.685Z,88
2023-04-01T09:37:00.529Z,88
2023-04-01T09:38:00.633Z,88
2023-04-01T09:39:00.558Z,88
2023-04-01T09:40:03.698Z,88
2023-04-01T09:41:00.580Z,88
2023-04-01T09:42:00.633Z,88
2023-04-01T09:43:00.549Z,88
2023-04-01T09:44:00.650Z,88
2023-04-01T09:45:03.240Z,88
2023-04-01T09:46:00.692Z,88
2023-04-01T09:47:00.591Z,88
2023-04-01T09:48:00.836Z,88
2023-04-01T09:49:00.583Z,88
2023-04-01T09:50:03.800Z,88
2023-04-01T09:51:00.625Z,88
2023-04-01T09:52:01.118Z,88
2023-04-01T09:53:00.611Z,88
2023-04-01T09:54:07.906Z,88
2023-04-01T09:55:04.747Z,88
2023-04-01T09:56:00.692Z,88
2023-04-01T09:57:00.668Z,88
2023-04-01T09:58:01.947Z,88
2023-04-01T09:59:00.648Z,88
2023-04-01T10:00:04.417Z,88
2023-04-01T10:01:00.670Z,88
2023-04-01T10:02:00.956Z,88
2023-04-01T10:03:00.841Z,88
2023-04-01T10:04:01.270Z,88
2023-04-01T10:05:03.791Z,88
2023-04-01T10:06:01.938Z,88
2023-04-01T10:07:00.705Z,88
2023-04-01T10:08:00.797Z,88
2023-04-01T10:09:00.704Z,88
2023-04-01T10:10:03.915Z,88
2023-04-01T10:11:00.704Z,88
2023-04-01T10:12:01.664Z,88
2023-04-01T10:13:00.729Z,88
2023-04-01T10:14:00.803Z,88
2023-04-01T10:15:03.594Z,88
2023-04-01T10:16:01.835Z,88
2023-04-01T10:17:00.746Z,88
2023-04-01T10:18:02.176Z,88
2023-04-01T10:19:00.743Z,88
2023-04-01T10:20:05.598Z,88
2023-04-01T10:21:00.766Z,88
2023-04-01T10:22:01.654Z,88
2023-04-01T10:23:00.780Z,88
2023-04-01T10:24:00.973Z,88
2023-04-01T10:25:06.067Z,88
2023-04-01T10:26:01.426Z,88
2023-04-01T10:27:00.816Z,88
2023-04-01T10:28:02.580Z,88
2023-04-01T10:29:00.827Z,88
2023-04-01T10:30:05.580Z,88
2023-04-01T10:31:00.842Z,88
2023-04-01T10:32:01.923Z,88
2023-04-01T10:33:00.902Z,88
2023-04-01T10:34:00.920Z,88
2023-04-01T10:35:03.553Z,88
2023-04-01T10:36:02.611Z,88
2023-04-01T10:37:00.869Z,88
2023-04-01T10:38:01.287Z,87
2023-04-01T10:39:00.869Z,87
2023-04-01T10:40:06.664Z,87
2023-04-01T10:41:00.865Z,87
2023-04-01T10:42:02.001Z,87
2023-04-01T10:43:00.880Z,87
2023-04-01T10:44:01.009Z,87
2023-04-01T10:45:03.663Z,87
2023-04-01T10:46:01.058Z,87
2023-04-01T10:47:00.893Z,87
2023-04-01T10:48:09.135Z,87
2023-04-01T10:49:00.920Z,87
2023-04-01T10:50:06.384Z,87
2023-04-01T10:51:00.970Z,87
2023-04-01T10:52:03.043Z,87
2023-04-01T10:53:00.952Z,87
2023-04-01T10:54:01.752Z,87
2023-04-01T10:55:03.612Z,87
2023-04-01T10:56:01.090Z,87
2023-04-01T10:57:01.036Z,87
2023-04-01T10:58:01.148Z,87
2023-04-01T10:59:00.970Z,87
2023-04-01T11:00:11.253Z,87
2023-04-01T11:01:01.044Z,87
2023-04-01T11:02:11.281Z,87
2023-04-01T11:03:01.102Z,87
2023-04-01T11:04:01.603Z,87
2023-04-01T11:05:03.732Z,87
2023-04-01T11:06:01.106Z,87
2023-04-01T11:07:01.012Z,87
2023-04-01T11:08:06.555Z,87
2023-04-01T11:09:01.044Z,87
2023-04-01T11:10:06.161Z,87
2023-04-01T11:11:01.044Z,87
2023-04-01T11:12:04.723Z,86
2023-04-01T11:13:01.046Z,86
2023-04-01T11:14:01.130Z,86
2023-04-01T11:15:04.087Z,86
2023-04-01T11:16:01.450Z,86
2023-04-01T11:17:01.067Z,86
2023-04-01T11:18:02.601Z,86
2023-04-01T11:19:01.068Z,86
2023-04-01T11:20:04.902Z,86
2023-04-01T11:21:01.098Z,86
2023-04-01T11:22:01.614Z,86
2023-04-01T11:23:01.101Z,86
2023-04-01T11:24:05.460Z,86
2023-04-01T11:25:03.814Z,86
2023-04-01T11:26:01.161Z,86
2023-04-01T11:27:01.146Z,86
2023-04-01T11:28:01.192Z,86
2023-04-01T11:29:01.126Z,86
2023-04-01T11:30:05.805Z,86
2023-04-01T11:31:01.156Z,86
2023-04-01T11:32:01.181Z,86
2023-04-01T11:33:01.217Z,86
2023-04-01T11:34:01.214Z,86
2023-04-01T11:35:05.290Z,86
2023-04-01T11:36:01.637Z,86
2023-04-01T11:37:01.152Z,86
2023-04-01T11:38:01.217Z,86
2023-04-01T11:39:01.159Z,86
2023-04-01T11:40:04.734Z,86
2023-04-01T11:41:01.163Z,86
2023-04-01T11:42:01.272Z,86
2023-04-01T11:43:01.168Z,86
2023-04-01T11:44:00.279Z,86
2023-04-01T11:45:04.428Z,86
2023-04-01T11:46:00.279Z,86
2023-04-01T11:47:00.200Z,86
2023-04-01T11:48:00.340Z,86
2023-04-01T11:49:00.221Z,86
2023-04-01T11:50:03.440Z,86
2023-04-01T11:51:00.279Z,86
2023-04-01T11:52:00.306Z,86
2023-04-01T11:53:00.232Z,86
2023-04-01T11:54:00.364Z,86
2023-04-01T11:55:02.938Z,86
2023-04-01T11:56:00.317Z,86
2023-04-01T11:57:00.294Z,86
2023-04-01T11:58:00.334Z,86
2023-04-01T11:59:00.257Z,86
2023-04-01T12:00:03.744Z,86
2023-04-01T12:01:00.286Z,86
2023-04-01T12:02:00.351Z,86
2023-04-01T12:03:00.364Z,86
2023-04-01T12:04:01.789Z,86
2023-04-01T12:05:03.097Z,86
2023-04-01T12:06:00.414Z,86
2023-04-01T12:07:00.306Z,86
2023-04-01T12:08:01.387Z,86
2023-04-01T12:09:00.327Z,86
2023-04-01T12:10:07.758Z,86
2023-04-01T12:11:00.340Z,86
2023-04-01T12:12:02.613Z,86
2023-04-01T12:13:01.892Z,86
2023-04-01T12:14:01.169Z,86
2023-04-01T12:15:03.071Z,86
2023-04-01T12:16:01.445Z,86
2023-04-01T12:17:00.365Z,86
2023-04-01T12:18:02.302Z,86
2023-04-01T12:19:00.377Z,86
2023-04-01T12:20:05.011Z,86
2023-04-01T12:21:00.372Z,86
2023-04-01T12:22:01.382Z,86
2023-04-01T12:23:00.388Z,86
2023-04-01T12:24:02.161Z,86
2023-04-01T12:25:03.046Z,86
2023-04-01T12:26:03.625Z,86
2023-04-01T12:27:00.391Z,86
2023-04-01T12:28:01.011Z,86
2023-04-01T12:29:00.397Z,86
2023-04-01T12:30:03.734Z,86
2023-04-01T12:31:00.410Z,86
2023-04-01T12:32:02.100Z,86
2023-04-01T12:33:00.464Z,86
2023-04-01T12:34:00.505Z,86
2023-04-01T12:35:03.136Z,86
2023-04-01T12:36:03.757Z,86
2023-04-01T12:37:00.442Z,86
2023-04-01T12:38:00.511Z,86
2023-04-01T12:39:00.458Z,86
2023-04-01T12:40:04.645Z,86
2023-04-01T12:41:00.465Z,86
2023-04-01T12:42:00.643Z,86
2023-04-01T12:43:00.483Z,86
2023-04-01T12:44:00.568Z,86
2023-04-01T12:45:03.296Z,86
2023-04-01T12:46:00.603Z,86
2023-04-01T12:47:00.500Z,86
2023-04-01T12:48:00.642Z,86
2023-04-01T12:49:00.518Z,86
2023-04-01T12:50:03.891Z,86
2023-04-01T12:51:00.522Z,86
2023-04-01T12:52:00.600Z,86
2023-04-01T12:53:00.519Z,86
2023-04-01T12:54:00.666Z,86
2023-04-01T12:55:03.350Z,86
2023-04-01T12:56:00.629Z,86
2023-04-01T12:57:00.605Z,86
2023-04-01T12:58:00.642Z,86
2023-04-01T12:59:00.554Z,86
2023-04-01T13:00:03.751Z,86
2023-04-01T13:01:00.576Z,86
2023-04-01T13:02:00.648Z,86
2023-04-01T13:03:00.600Z,86
2023-04-01T13:04:01.729Z,86
2023-04-01T13:05:03.252Z,86
2023-04-01T13:06:00.701Z,86
2023-04-01T13:07:00.580Z,86
2023-04-01T13:08:00.650Z,86
2023-04-01T13:09:00.624Z,86
2023-04-01T13:10:03.765Z,86
2023-04-01T13:11:00.608Z,86
2023-04-01T13:12:00.738Z,86
2023-04-01T13:13:00.679Z,86
2023-04-01T13:14:00.711Z,86
2023-04-01T13:15:05.751Z,86
2023-04-01T13:16:01.745Z,86
2023-04-01T13:17:00.651Z,86
2023-04-01T13:18:00.788Z,86
2023-04-01T13:19:00.669Z,86
2023-04-01T13:20:06.029Z,86
2023-04-01T13:21:00.670Z,86
2023-04-01T13:22:00.759Z,86
2023-04-01T13:23:00.664Z,86
2023-04-01T13:24:01.411Z,86
2023-04-01T13:25:03.378Z,86
2023-04-01T13:26:11.313Z,86
2023-04-01T13:27:00.697Z,86
2023-04-01T13:28:02.161Z,86
2023-04-01T13:29:00.740Z,86
2023-04-01T13:30:06.186Z,86
2023-04-01T13:31:00.768Z,86
2023-04-01T13:32:01.192Z,86
2023-04-01T13:33:00.735Z,86
2023-04-01T13:34:01.714Z,86
2023-04-01T13:35:04.623Z,86
2023-04-01T13:36:02.377Z,86
2023-04-01T13:37:00.749Z,86
2023-04-01T13:38:00.873Z,86
2023-04-01T13:39:00.782Z,86
2023-04-01T13:40:03.729Z,86
2023-04-01T13:41:03.985Z,86
2023-04-01T13:42:04.431Z,86
2023-04-01T13:43:00.883Z,86
2023-04-01T13:44:00.893Z,86
2023-04-01T13:45:04.003Z,86
2023-04-01T13:46:01.982Z,86
2023-04-01T13:47:00.826Z,86
2023-04-01T13:48:09.950Z,85
2023-04-01T13:49:00.847Z,85
2023-04-01T13:50:42.822Z,86
2023-04-01T13:51:00.830Z,86
2023-04-01T13:52:01.687Z,86
2023-04-01T13:53:00.848Z,86
2023-04-01T13:54:01.534Z,86
2023-04-01T13:55:03.893Z,86
2023-04-01T13:56:01.959Z,86
2023-04-01T13:57:00.884Z,86
2023-04-01T13:58:01.152Z,86
2023-04-01T13:59:00.860Z,86
2023-04-01T14:00:05.087Z,86
2023-04-01T14:01:00.899Z,85
2023-04-01T14:02:00.957Z,85
2023-04-01T14:03:00.995Z,85
2023-04-01T14:04:01.974Z,85
2023-04-01T14:05:03.886Z,86
2023-04-01T14:06:01.005Z,86
2023-04-01T14:07:00.903Z,86
2023-04-01T14:08:01.720Z,86
2023-04-01T14:09:00.937Z,86
2023-04-01T14:10:04.686Z,86
2023-04-01T14:11:00.941Z,86
2023-04-01T14:12:04.250Z,86
2023-04-01T14:13:00.939Z,86
2023-04-01T14:14:01.643Z,86
2023-04-01T14:15:03.953Z,86